M/T Four Island — IBCA — position and weather

sailwx.info

Track history (hours):
 
Tides and Currents Weather Stations Pressure Air Temp Water Temp Dewpoint Dewpoint Depression Visibility Wind Speed Wind Dir Waves Ship Positions

M/T Four Island

Last reported at 2014-Sep-05 09:25 UTC. Time now 2014-Sep-16 23:32 UTC.
Position N 36°38' E 026°33'.
Warning: this ship's position is 11 days out of date.

Length 233 m; draft 13.8 m.

Type: Ship. MMSI: 247008000.

Date/timePositionNaut miles runAvg speedWind from/ knotsBaromVisibWave heightAir tempDewpointWater temp
2014-Sep-05 09:25N 36°38' E 026°33'910.0
2014-Sep-05 08:33N 36°44' E 026°25'2110.3
2014-Sep-05 06:33N 37°01' E 026°10'1010.3
2014-Sep-05 05:33N 37°10' E 026°04'1010.1
2014-Sep-05 04:33N 37°18' E 025°56'1010.2
2014-Sep-05 03:33N 37°24' E 025°45'1110.8
2014-Sep-05 02:33N 37°34' E 025°42'1010.5
2014-Sep-05 01:33N 37°44' E 025°38'1010.3
2014-Sep-05 00:33N 37°54' E 025°34'1010.2
2014-Sep-04 23:33N 38°04' E 025°30'1010.0
2014-Sep-04 22:33N 38°13' E 025°27'10 9.9
2014-Sep-04 21:33N 38°23' E 025°23'1010.0
2014-Sep-04 20:33N 38°32' E 025°20'1010.4
2014-Sep-04 19:33N 38°43' E 025°24'1010.2
2014-Sep-04 18:33N 38°52' E 025°27'1010.5
2014-Sep-04 17:33N 39°03' E 025°30'1110.5
2014-Sep-04 16:31N 39°13' E 025°33'1310.4
2014-Sep-04 15:16N 39°26' E 025°37'710.2
2014-Sep-04 14:33N 39°33' E 025°39'1110.5
2014-Sep-04 13:29N 39°44' E 025°43'146 4.3
2014-Sep-03 03:30N 40°52' E 028°33'10 9.4
2014-Sep-03 02:24N 40°54' E 028°46'5 6.4
2014-Sep-03 01:33N 40°56' E 028°53'1 0.1
2014-Sep-02 18:19N 40°56' E 028°52'0 0.0
2014-Sep-02 12:17N 40°56' E 028°52'1 1.4
2014-Sep-02 11:15N 40°55' E 028°51'1 1.4
2014-Sep-02 10:30N 40°55' E 028°52'4 4.5
2014-Sep-02 09:33N 40°57' E 028°57'  
2014-Aug-30 10:26N 44°03' E 034°36'1010.6
2014-Aug-30 09:32N 44°09' E 034°47'1111.0
2014-Aug-30 08:33N 44°15' E 034°59'84 1.8
2014-Aug-28 09:31N 45°05' E 036°33'0 0.0
2014-Aug-28 08:34N 45°05' E 036°33'0 0.1
2014-Aug-28 07:31N 45°05' E 036°33'0 0.0
2014-Aug-28 05:25N 45°05' E 036°33'0 0.0
2014-Aug-28 04:34N 45°05' E 036°33'0 0.0
2014-Aug-28 03:34N 45°05' E 036°33'0 0.0
2014-Aug-28 02:25N 45°05' E 036°33'0 0.0
2014-Aug-28 01:31N 45°05' E 036°33'0 0.0
2014-Aug-27 15:31N 45°05' E 036°33'0 0.0
2014-Aug-27 14:31N 45°05' E 036°33'0 0.0
2014-Aug-27 13:31N 45°05' E 036°33'0 0.0
2014-Aug-27 03:13N 45°05' E 036°33'  
Track history (hours):
 
Tides and Currents Weather Stations Pressure Air Temp Water Temp Dewpoint Dewpoint Depression Visibility Wind Speed Wind Dir Waves Ship Positions

M/T Four Island

Last reported at 2014-Sep-05 09:25 UTC. Time now 2014-Sep-16 23:32 UTC.
Position N 36°38' E 026°33'.
Warning: this ship's position is 11 days out of date.

Length 233 m; draft 13.8 m.

Type: Ship. MMSI: 247008000.

Date/timePositionNaut miles runAvg speedWind from/ knotsBaromVisibWave heightAir tempDewpointWater temp
2014-Sep-05 09:25N 36°38' E 026°33'910.0
2014-Sep-05 08:33N 36°44' E 026°25'2110.3
2014-Sep-05 06:33N 37°01' E 026°10'1010.3
2014-Sep-05 05:33N 37°10' E 026°04'1010.1
2014-Sep-05 04:33N 37°18' E 025°56'1010.2
2014-Sep-05 03:33N 37°24' E 025°45'1110.8
2014-Sep-05 02:33N 37°34' E 025°42'1010.5
2014-Sep-05 01:33N 37°44' E 025°38'1010.3
2014-Sep-05 00:33N 37°54' E 025°34'1010.2
2014-Sep-04 23:33N 38°04' E 025°30'1010.0
2014-Sep-04 22:33N 38°13' E 025°27'10 9.9
2014-Sep-04 21:33N 38°23' E 025°23'1010.0
2014-Sep-04 20:33N 38°32' E 025°20'1010.4
2014-Sep-04 19:33N 38°43' E 025°24'1010.2
2014-Sep-04 18:33N 38°52' E 025°27'1010.5
2014-Sep-04 17:33N 39°03' E 025°30'1110.5
2014-Sep-04 16:31N 39°13' E 025°33'1310.4
2014-Sep-04 15:16N 39°26' E 025°37'710.2
2014-Sep-04 14:33N 39°33' E 025°39'1110.5
2014-Sep-04 13:29N 39°44' E 025°43'146 4.3
2014-Sep-03 03:30N 40°52' E 028°33'10 9.4
2014-Sep-03 02:24N 40°54' E 028°46'5 6.4
2014-Sep-03 01:33N 40°56' E 028°53'1 0.1
2014-Sep-02 18:19N 40°56' E 028°52'0 0.0
2014-Sep-02 12:17N 40°56' E 028°52'1 1.4
2014-Sep-02 11:15N 40°55' E 028°51'1 1.4
2014-Sep-02 10:30N 40°55' E 028°52'4 4.5
2014-Sep-02 09:33N 40°57' E 028°57'  
2014-Aug-30 10:26N 44°03' E 034°36'1010.6
2014-Aug-30 09:32N 44°09' E 034°47'1111.0
2014-Aug-30 08:33N 44°15' E 034°59'84 1.8
2014-Aug-28 09:31N 45°05' E 036°33'0 0.0
2014-Aug-28 08:34N 45°05' E 036°33'0 0.1
2014-Aug-28 07:31N 45°05' E 036°33'0 0.0
2014-Aug-28 05:25N 45°05' E 036°33'0 0.0
2014-Aug-28 04:34N 45°05' E 036°33'0 0.0
2014-Aug-28 03:34N 45°05' E 036°33'0 0.0
2014-Aug-28 02:25N 45°05' E 036°33'0 0.0
2014-Aug-28 01:31N 45°05' E 036°33'0 0.0
2014-Aug-27 15:31N 45°05' E 036°33'0 0.0
2014-Aug-27 14:31N 45°05' E 036°33'0 0.0
2014-Aug-27 13:31N 45°05' E 036°33'0 0.0
2014-Aug-27 03:13N 45°05' E 036°33'  

Dump ship's entire track history